sensor_id;sensor_type;location;lat;lon;timestamp;P1;durP1;ratioP1;P2;durP2;ratioP2
14096;SDS011;7125;48.106;11.544;2022-08-19T00:00:16;8.88;;;7.50;;
14096;SDS011;7125;48.106;11.544;2022-08-19T00:02:44;7.57;;;6.85;;
14096;SDS011;7125;48.106;11.544;2022-08-19T00:05:13;8.20;;;7.38;;
14096;SDS011;7125;48.106;11.544;2022-08-19T00:07:40;8.45;;;7.65;;
14096;SDS011;7125;48.106;11.544;2022-08-19T00:10:10;8.40;;;7.40;;
14096;SDS011;7125;48.106;11.544;2022-08-19T00:12:39;7.80;;;7.10;;
14096;SDS011;7125;48.106;11.544;2022-08-19T00:15:08;7.35;;;6.75;;
14096;SDS011;7125;48.106;11.544;2022-08-19T00:17:37;8.27;;;7.47;;
14096;SDS011;7125;48.106;11.544;2022-08-19T00:20:05;9.80;;;7.72;;
14096;SDS011;7125;48.106;11.544;2022-08-19T00:22:33;9.63;;;7.85;;
14096;SDS011;7125;48.106;11.544;2022-08-19T00:25:00;8.98;;;8.07;;
14096;SDS011;7125;48.106;11.544;2022-08-19T00:27:28;9.63;;;8.55;;
14096;SDS011;7125;48.106;11.544;2022-08-19T00:29:55;8.85;;;7.85;;
14096;SDS011;7125;48.106;11.544;2022-08-19T00:32:23;8.75;;;7.95;;
14096;SDS011;7125;48.106;11.544;2022-08-19T00:34:50;8.27;;;7.35;;
14096;SDS011;7125;48.106;11.544;2022-08-19T00:37:18;9.73;;;8.75;;
14096;SDS011;7125;48.106;11.544;2022-08-19T00:39:48;9.68;;;8.75;;
14096;SDS011;7125;48.106;11.544;2022-08-19T00:42:16;8.57;;;7.78;;
14096;SDS011;7125;48.106;11.544;2022-08-19T00:44:45;10.57;;;9.57;;
14096;SDS011;7125;48.106;11.544;2022-08-19T00:47:13;8.65;;;7.82;;
14096;SDS011;7125;48.106;11.544;2022-08-19T00:49:41;11.18;;;8.60;;
14096;SDS011;7125;48.106;11.544;2022-08-19T00:52:16;9.00;;;8.10;;
14096;SDS011;7125;48.106;11.544;2022-08-19T00:54:47;10.70;;;9.60;;
14096;SDS011;7125;48.106;11.544;2022-08-19T00:57:15;12.15;;;10.35;;
14096;SDS011;7125;48.106;11.544;2022-08-19T00:59:46;9.77;;;8.73;;
14096;SDS011;7125;48.106;11.544;2022-08-19T01:02:17;11.07;;;9.02;;
14096;SDS011;7125;48.106;11.544;2022-08-19T01:04:44;10.77;;;9.68;;
14096;SDS011;7125;48.106;11.544;2022-08-19T01:07:11;11.38;;;9.85;;
14096;SDS011;7125;48.106;11.544;2022-08-19T01:09:38;10.20;;;9.30;;
14096;SDS011;7125;48.106;11.544;2022-08-19T01:12:05;13.15;;;9.70;;
14096;SDS011;7125;48.106;11.544;2022-08-19T01:14:32;15.88;;;9.70;;
14096;SDS011;7125;48.106;11.544;2022-08-19T01:17:01;11.10;;;10.07;;
14096;SDS011;7125;48.106;11.544;2022-08-19T01:19:29;12.32;;;10.73;;
14096;SDS011;7125;48.106;11.544;2022-08-19T01:22:00;11.98;;;10.77;;
14096;SDS011;7125;48.106;11.544;2022-08-19T01:24:31;11.52;;;9.63;;
14096;SDS011;7125;48.106;11.544;2022-08-19T01:26:58;11.40;;;10.25;;
14096;SDS011;7125;48.106;11.544;2022-08-19T01:29:25;12.50;;;10.25;;
14096;SDS011;7125;48.106;11.544;2022-08-19T01:31:52;11.38;;;10.30;;
14096;SDS011;7125;48.106;11.544;2022-08-19T01:34:19;12.52;;;11.23;;
14096;SDS011;7125;48.106;11.544;2022-08-19T01:36:46;11.18;;;9.98;;
14096;SDS011;7125;48.106;11.544;2022-08-19T01:39:15;10.85;;;9.85;;
14096;SDS011;7125;48.106;11.544;2022-08-19T01:41:45;10.30;;;9.13;;
14096;SDS011;7125;48.106;11.544;2022-08-19T01:44:12;11.98;;;10.77;;
14096;SDS011;7125;48.106;11.544;2022-08-19T01:46:41;12.55;;;11.32;;
14096;SDS011;7125;48.106;11.544;2022-08-19T01:49:08;10.38;;;9.25;;
14096;SDS011;7125;48.106;11.544;2022-08-19T01:51:36;10.90;;;9.90;;
14096;SDS011;7125;48.106;11.544;2022-08-19T01:54:04;11.57;;;10.48;;
14096;SDS011;7125;48.106;11.544;2022-08-19T01:56:30;11.02;;;9.93;;
14096;SDS011;7125;48.106;11.544;2022-08-19T01:59:00;11.70;;;10.57;;
14096;SDS011;7125;48.106;11.544;2022-08-19T02:01:30;11.20;;;9.90;;
14096;SDS011;7125;48.106;11.544;2022-08-19T02:03:57;11.07;;;10.05;;
14096;SDS011;7125;48.106;11.544;2022-08-19T02:06:25;10.98;;;9.95;;
14096;SDS011;7125;48.106;11.544;2022-08-19T02:08:52;10.35;;;9.32;;
14096;SDS011;7125;48.106;11.544;2022-08-19T02:11:20;11.30;;;10.07;;
14096;SDS011;7125;48.106;11.544;2022-08-19T02:13:49;10.93;;;9.80;;
14096;SDS011;7125;48.106;11.544;2022-08-19T02:16:17;10.35;;;9.35;;
14096;SDS011;7125;48.106;11.544;2022-08-19T02:18:45;13.00;;;10.65;;
14096;SDS011;7125;48.106;11.544;2022-08-19T02:21:13;11.05;;;9.75;;
14096;SDS011;7125;48.106;11.544;2022-08-19T02:23:40;11.48;;;10.32;;
14096;SDS011;7125;48.106;11.544;2022-08-19T02:26:07;10.60;;;9.45;;
14096;SDS011;7125;48.106;11.544;2022-08-19T02:28:34;10.07;;;9.18;;
14096;SDS011;7125;48.106;11.544;2022-08-19T02:31:01;10.82;;;9.73;;
14096;SDS011;7125;48.106;11.544;2022-08-19T02:33:29;10.57;;;8.88;;
14096;SDS011;7125;48.106;11.544;2022-08-19T02:35:56;9.82;;;8.93;;
14096;SDS011;7125;48.106;11.544;2022-08-19T02:38:23;9.30;;;8.50;;
14096;SDS011;7125;48.106;11.544;2022-08-19T02:40:52;9.05;;;8.05;;
14096;SDS011;7125;48.106;11.544;2022-08-19T02:43:21;12.18;;;8.82;;
14096;SDS011;7125;48.106;11.544;2022-08-19T02:45:48;10.07;;;9.07;;
14096;SDS011;7125;48.106;11.544;2022-08-19T02:48:16;7.57;;;6.75;;
14096;SDS011;7125;48.106;11.544;2022-08-19T02:50:45;9.38;;;8.30;;
14096;SDS011;7125;48.106;11.544;2022-08-19T02:53:13;12.90;;;9.13;;
14096;SDS011;7125;48.106;11.544;2022-08-19T02:55:43;8.27;;;7.47;;
14096;SDS011;7125;48.106;11.544;2022-08-19T02:58:11;8.75;;;7.82;;
14096;SDS011;7125;48.106;11.544;2022-08-19T03:00:42;9.15;;;8.32;;
14096;SDS011;7125;48.106;11.544;2022-08-19T03:03:10;9.82;;;7.97;;
14096;SDS011;7125;48.106;11.544;2022-08-19T03:05:37;7.93;;;7.22;;
14096;SDS011;7125;48.106;11.544;2022-08-19T03:08:06;8.55;;;7.75;;
14096;SDS011;7125;48.106;11.544;2022-08-19T03:10:39;8.23;;;7.43;;
14096;SDS011;7125;48.106;11.544;2022-08-19T03:13:09;8.55;;;7.75;;
14096;SDS011;7125;48.106;11.544;2022-08-19T03:15:38;8.65;;;7.85;;
14096;SDS011;7125;48.106;11.544;2022-08-19T03:18:06;8.45;;;7.63;;
14096;SDS011;7125;48.106;11.544;2022-08-19T03:20:33;8.85;;;8.05;;
14096;SDS011;7125;48.106;11.544;2022-08-19T03:23:06;7.57;;;6.90;;
14096;SDS011;7125;48.106;11.544;2022-08-19T03:25:36;9.00;;;7.82;;
14096;SDS011;7125;48.106;11.544;2022-08-19T03:28:04;8.98;;;8.07;;
14096;SDS011;7125;48.106;11.544;2022-08-19T03:30:30;8.75;;;7.93;;
14096;SDS011;7125;48.106;11.544;2022-08-19T03:32:57;9.05;;;7.72;;
14096;SDS011;7125;48.106;11.544;2022-08-19T03:35:24;8.38;;;7.68;;
14096;SDS011;7125;48.106;11.544;2022-08-19T03:37:51;7.32;;;6.70;;
14096;SDS011;7125;48.106;11.544;2022-08-19T03:40:19;9.15;;;8.18;;
14096;SDS011;7125;48.106;11.544;2022-08-19T03:42:46;8.95;;;7.57;;
14096;SDS011;7125;48.106;11.544;2022-08-19T03:45:14;9.85;;;8.70;;
14096;SDS011;7125;48.106;11.544;2022-08-19T03:47:41;9.02;;;8.15;;
14096;SDS011;7125;48.106;11.544;2022-08-19T03:50:08;7.55;;;6.80;;
14096;SDS011;7125;48.106;11.544;2022-08-19T03:52:35;8.93;;;8.02;;
14096;SDS011;7125;48.106;11.544;2022-08-19T03:55:02;7.05;;;6.45;;
14096;SDS011;7125;48.106;11.544;2022-08-19T03:57:31;8.63;;;7.82;;
14096;SDS011;7125;48.106;11.544;2022-08-19T03:59:59;8.52;;;6.85;;
14096;SDS011;7125;48.106;11.544;2022-08-19T04:02:26;7.28;;;6.57;;
14096;SDS011;7125;48.106;11.544;2022-08-19T04:04:53;7.07;;;6.40;;
14096;SDS011;7125;48.106;11.544;2022-08-19T04:07:20;8.02;;;7.32;;
14096;SDS011;7125;48.106;11.544;2022-08-19T04:09:48;8.52;;;7.57;;
14096;SDS011;7125;48.106;11.544;2022-08-19T04:12:17;9.35;;;6.85;;
14096;SDS011;7125;48.106;11.544;2022-08-19T04:14:46;7.50;;;6.80;;
14096;SDS011;7125;48.106;11.544;2022-08-19T04:17:13;8.32;;;7.53;;
14096;SDS011;7125;48.106;11.544;2022-08-19T04:19:40;8.02;;;6.88;;
14096;SDS011;7125;48.106;11.544;2022-08-19T04:22:08;15.82;;;7.50;;
14096;SDS011;7125;48.106;11.544;2022-08-19T04:24:36;7.72;;;6.97;;
14096;SDS011;7125;48.106;11.544;2022-08-19T04:27:03;7.47;;;6.78;;
14096;SDS011;7125;48.106;11.544;2022-08-19T04:29:31;6.60;;;6.00;;
14096;SDS011;7125;48.106;11.544;2022-08-19T04:32:00;8.73;;;7.93;;
14096;SDS011;7125;48.106;11.544;2022-08-19T04:34:27;8.93;;;8.15;;
14096;SDS011;7125;48.106;11.544;2022-08-19T04:36:55;9.20;;;8.30;;
14096;SDS011;7125;48.106;11.544;2022-08-19T04:39:25;10.15;;;7.65;;
14096;SDS011;7125;48.106;11.544;2022-08-19T04:42:13;7.45;;;6.57;;
14096;SDS011;7125;48.106;11.544;2022-08-19T04:44:58;8.70;;;7.80;;
14096;SDS011;7125;48.106;11.544;2022-08-19T04:47:27;12.23;;;9.23;;
14096;SDS011;7125;48.106;11.544;2022-08-19T04:49:54;9.27;;;7.97;;
14096;SDS011;7125;48.106;11.544;2022-08-19T04:52:21;12.68;;;8.05;;
14096;SDS011;7125;48.106;11.544;2022-08-19T04:54:48;13.35;;;10.15;;
14096;SDS011;7125;48.106;11.544;2022-08-19T04:57:15;11.25;;;9.32;;
14096;SDS011;7125;48.106;11.544;2022-08-19T04:59:42;9.25;;;8.32;;
14096;SDS011;7125;48.106;11.544;2022-08-19T05:02:08;9.57;;;8.65;;
14096;SDS011;7125;48.106;11.544;2022-08-19T05:04:37;8.70;;;7.80;;
14096;SDS011;7125;48.106;11.544;2022-08-19T05:07:04;11.93;;;9.30;;
14096;SDS011;7125;48.106;11.544;2022-08-19T05:09:31;9.95;;;9.00;;
14096;SDS011;7125;48.106;11.544;2022-08-19T05:11:58;9.38;;;8.15;;
14096;SDS011;7125;48.106;11.544;2022-08-19T05:14:25;9.55;;;8.65;;
14096;SDS011;7125;48.106;11.544;2022-08-19T05:16:52;9.75;;;8.50;;
14096;SDS011;7125;48.106;11.544;2022-08-19T05:19:19;8.10;;;7.30;;
14096;SDS011;7125;48.106;11.544;2022-08-19T05:22:04;10.88;;;8.18;;
14096;SDS011;7125;48.106;11.544;2022-08-19T05:24:49;9.00;;;8.10;;
14096;SDS011;7125;48.106;11.544;2022-08-19T05:27:15;8.05;;;6.93;;
14096;SDS011;7125;48.106;11.544;2022-08-19T05:29:42;8.27;;;7.35;;
14096;SDS011;7125;48.106;11.544;2022-08-19T05:32:09;8.77;;;7.70;;
14096;SDS011;7125;48.106;11.544;2022-08-19T05:34:36;10.80;;;8.80;;
14096;SDS011;7125;48.106;11.544;2022-08-19T05:37:05;8.98;;;8.18;;
14096;SDS011;7125;48.106;11.544;2022-08-19T05:39:33;9.77;;;8.77;;
14096;SDS011;7125;48.106;11.544;2022-08-19T05:42:02;8.50;;;7.70;;
14096;SDS011;7125;48.106;11.544;2022-08-19T05:44:32;10.75;;;9.02;;
14096;SDS011;7125;48.106;11.544;2022-08-19T05:47:02;11.43;;;8.65;;
14096;SDS011;7125;48.106;11.544;2022-08-19T05:49:32;8.98;;;8.10;;
14096;SDS011;7125;48.106;11.544;2022-08-19T05:52:01;14.50;;;9.15;;
14096;SDS011;7125;48.106;11.544;2022-08-19T05:54:30;11.65;;;10.43;;
14096;SDS011;7125;48.106;11.544;2022-08-19T05:56:58;11.07;;;9.35;;
14096;SDS011;7125;48.106;11.544;2022-08-19T05:59:26;12.13;;;10.90;;
14096;SDS011;7125;48.106;11.544;2022-08-19T06:01:53;12.15;;;10.95;;
14096;SDS011;7125;48.106;11.544;2022-08-19T06:04:22;13.02;;;11.60;;
14096;SDS011;7125;48.106;11.544;2022-08-19T06:06:51;16.52;;;11.80;;
14096;SDS011;7125;48.106;11.544;2022-08-19T06:09:19;12.35;;;11.07;;
14096;SDS011;7125;48.106;11.544;2022-08-19T06:11:49;13.63;;;11.27;;
14096;SDS011;7125;48.106;11.544;2022-08-19T06:14:19;12.95;;;11.60;;
14096;SDS011;7125;48.106;11.544;2022-08-19T06:16:47;14.35;;;12.05;;
14096;SDS011;7125;48.106;11.544;2022-08-19T06:19:16;13.45;;;12.10;;
14096;SDS011;7125;48.106;11.544;2022-08-19T06:21:45;15.82;;;13.50;;
14096;SDS011;7125;48.106;11.544;2022-08-19T06:24:14;13.50;;;12.20;;
14096;SDS011;7125;48.106;11.544;2022-08-19T06:26:43;16.88;;;15.15;;
14096;SDS011;7125;48.106;11.544;2022-08-19T06:29:13;17.80;;;15.15;;
14096;SDS011;7125;48.106;11.544;2022-08-19T06:31:42;18.05;;;16.05;;
14096;SDS011;7125;48.106;11.544;2022-08-19T06:34:10;19.13;;;14.48;;
14096;SDS011;7125;48.106;11.544;2022-08-19T06:36:38;17.05;;;14.50;;
14096;SDS011;7125;48.106;11.544;2022-08-19T06:39:09;17.25;;;15.43;;
14096;SDS011;7125;48.106;11.544;2022-08-19T06:41:38;18.00;;;15.38;;
14096;SDS011;7125;48.106;11.544;2022-08-19T06:44:14;18.92;;;15.82;;
14096;SDS011;7125;48.106;11.544;2022-08-19T06:46:41;16.85;;;15.13;;
14096;SDS011;7125;48.106;11.544;2022-08-19T06:49:09;20.88;;;16.42;;
14096;SDS011;7125;48.106;11.544;2022-08-19T06:51:39;19.85;;;17.38;;
14096;SDS011;7125;48.106;11.544;2022-08-19T06:54:08;18.23;;;15.18;;
14096;SDS011;7125;48.106;11.544;2022-08-19T06:56:36;17.73;;;13.80;;
14096;SDS011;7125;48.106;11.544;2022-08-19T06:59:04;23.73;;;17.92;;
14096;SDS011;7125;48.106;11.544;2022-08-19T07:01:35;16.48;;;14.77;;
14096;SDS011;7125;48.106;11.544;2022-08-19T07:04:03;24.05;;;18.73;;
14096;SDS011;7125;48.106;11.544;2022-08-19T07:06:31;19.55;;;17.50;;
14096;SDS011;7125;48.106;11.544;2022-08-19T07:08:58;21.00;;;16.83;;
14096;SDS011;7125;48.106;11.544;2022-08-19T07:11:25;23.88;;;17.35;;
14096;SDS011;7125;48.106;11.544;2022-08-19T07:13:52;19.85;;;16.00;;
14096;SDS011;7125;48.106;11.544;2022-08-19T07:16:20;23.85;;;18.20;;
14096;SDS011;7125;48.106;11.544;2022-08-19T07:18:49;25.98;;;19.05;;
14096;SDS011;7125;48.106;11.544;2022-08-19T07:21:18;25.33;;;19.45;;
14096;SDS011;7125;48.106;11.544;2022-08-19T07:23:47;23.95;;;18.30;;
14096;SDS011;7125;48.106;11.544;2022-08-19T07:26:16;22.10;;;19.33;;
14096;SDS011;7125;48.106;11.544;2022-08-19T07:28:45;22.52;;;17.63;;
14096;SDS011;7125;48.106;11.544;2022-08-19T07:31:13;24.05;;;20.25;;
14096;SDS011;7125;48.106;11.544;2022-08-19T07:33:43;23.05;;;19.50;;
14096;SDS011;7125;48.106;11.544;2022-08-19T07:36:13;22.60;;;18.33;;
14096;SDS011;7125;48.106;11.544;2022-08-19T07:38:42;30.02;;;21.65;;
14096;SDS011;7125;48.106;11.544;2022-08-19T07:41:12;31.40;;;23.20;;
14096;SDS011;7125;48.106;11.544;2022-08-19T07:43:44;33.03;;;22.88;;
14096;SDS011;7125;48.106;11.544;2022-08-19T07:46:12;28.33;;;22.25;;
14096;SDS011;7125;48.106;11.544;2022-08-19T07:48:40;28.55;;;22.17;;
14096;SDS011;7125;48.106;11.544;2022-08-19T07:51:08;28.65;;;22.40;;
14096;SDS011;7125;48.106;11.544;2022-08-19T07:53:38;30.77;;;25.27;;
14096;SDS011;7125;48.106;11.544;2022-08-19T07:56:05;29.80;;;24.58;;
14096;SDS011;7125;48.106;11.544;2022-08-19T07:58:33;28.17;;;22.83;;
14096;SDS011;7125;48.106;11.544;2022-08-19T08:01:03;27.77;;;23.25;;
14096;SDS011;7125;48.106;11.544;2022-08-19T08:03:32;29.38;;;23.55;;
14096;SDS011;7125;48.106;11.544;2022-08-19T08:06:17;33.53;;;24.95;;
14096;SDS011;7125;48.106;11.544;2022-08-19T08:09:05;49.72;;;28.92;;
14096;SDS011;7125;48.106;11.544;2022-08-19T08:11:43;32.63;;;25.65;;
14096;SDS011;7125;48.106;11.544;2022-08-19T08:14:14;40.20;;;28.25;;
14096;SDS011;7125;48.106;11.544;2022-08-19T08:16:42;33.03;;;24.80;;
14096;SDS011;7125;48.106;11.544;2022-08-19T08:19:11;30.15;;;24.42;;
14096;SDS011;7125;48.106;11.544;2022-08-19T08:21:40;30.55;;;23.77;;
14096;SDS011;7125;48.106;11.544;2022-08-19T08:24:08;30.15;;;25.77;;
14096;SDS011;7125;48.106;11.544;2022-08-19T08:26:36;35.30;;;28.23;;
14096;SDS011;7125;48.106;11.544;2022-08-19T08:29:03;46.78;;;31.55;;
14096;SDS011;7125;48.106;11.544;2022-08-19T08:31:32;34.30;;;25.63;;
14096;SDS011;7125;48.106;11.544;2022-08-19T08:33:59;37.08;;;29.30;;
14096;SDS011;7125;48.106;11.544;2022-08-19T08:36:26;36.95;;;27.45;;
14096;SDS011;7125;48.106;11.544;2022-08-19T08:38:53;32.03;;;25.65;;
14096;SDS011;7125;48.106;11.544;2022-08-19T08:41:25;40.80;;;30.25;;
14096;SDS011;7125;48.106;11.544;2022-08-19T08:43:57;34.58;;;26.75;;
14096;SDS011;7125;48.106;11.544;2022-08-19T08:46:25;36.53;;;27.88;;
14096;SDS011;7125;48.106;11.544;2022-08-19T08:48:57;33.38;;;25.92;;
14096;SDS011;7125;48.106;11.544;2022-08-19T08:51:29;37.78;;;27.38;;
14096;SDS011;7125;48.106;11.544;2022-08-19T08:54:01;34.40;;;26.85;;
14096;SDS011;7125;48.106;11.544;2022-08-19T08:56:33;35.75;;;26.00;;
14096;SDS011;7125;48.106;11.544;2022-08-19T08:59:01;36.83;;;27.20;;
14096;SDS011;7125;48.106;11.544;2022-08-19T09:01:33;32.85;;;26.27;;
14096;SDS011;7125;48.106;11.544;2022-08-19T09:04:02;30.38;;;24.00;;
14096;SDS011;7125;48.106;11.544;2022-08-19T09:06:32;31.40;;;25.10;;
14096;SDS011;7125;48.106;11.544;2022-08-19T09:09:05;34.50;;;26.30;;
14096;SDS011;7125;48.106;11.544;2022-08-19T09:11:47;30.42;;;24.77;;
14096;SDS011;7125;48.106;11.544;2022-08-19T09:14:27;35.20;;;24.65;;
14096;SDS011;7125;48.106;11.544;2022-08-19T09:16:59;31.02;;;23.30;;
14096;SDS011;7125;48.106;11.544;2022-08-19T09:19:46;34.75;;;26.23;;
14096;SDS011;7125;48.106;11.544;2022-08-19T09:22:18;31.85;;;24.38;;
14096;SDS011;7125;48.106;11.544;2022-08-19T09:24:46;28.58;;;23.40;;
14096;SDS011;7125;48.106;11.544;2022-08-19T09:27:14;30.35;;;24.08;;
14096;SDS011;7125;48.106;11.544;2022-08-19T09:29:41;27.80;;;24.10;;
14096;SDS011;7125;48.106;11.544;2022-08-19T09:32:08;27.70;;;23.50;;
14096;SDS011;7125;48.106;11.544;2022-08-19T09:34:36;29.10;;;22.75;;
14096;SDS011;7125;48.106;11.544;2022-08-19T09:37:03;34.60;;;25.25;;
14096;SDS011;7125;48.106;11.544;2022-08-19T09:39:30;32.17;;;25.27;;
14096;SDS011;7125;48.106;11.544;2022-08-19T09:41:57;32.42;;;24.02;;
14096;SDS011;7125;48.106;11.544;2022-08-19T09:44:24;29.80;;;23.20;;
14096;SDS011;7125;48.106;11.544;2022-08-19T09:46:51;38.80;;;24.85;;
14096;SDS011;7125;48.106;11.544;2022-08-19T09:49:18;32.85;;;25.83;;
14096;SDS011;7125;48.106;11.544;2022-08-19T09:51:50;29.95;;;22.02;;
14096;SDS011;7125;48.106;11.544;2022-08-19T09:54:21;31.33;;;26.08;;
14096;SDS011;7125;48.106;11.544;2022-08-19T09:56:48;28.80;;;24.13;;
14096;SDS011;7125;48.106;11.544;2022-08-19T09:59:15;39.70;;;26.25;;
14096;SDS011;7125;48.106;11.544;2022-08-19T10:01:42;32.13;;;25.05;;
14096;SDS011;7125;48.106;11.544;2022-08-19T10:04:08;31.50;;;24.63;;
14096;SDS011;7125;48.106;11.544;2022-08-19T10:06:36;33.83;;;24.48;;
14096;SDS011;7125;48.106;11.544;2022-08-19T10:09:06;35.63;;;26.60;;
14096;SDS011;7125;48.106;11.544;2022-08-19T10:11:35;32.50;;;25.27;;
14096;SDS011;7125;48.106;11.544;2022-08-19T10:14:05;36.63;;;25.88;;
14096;SDS011;7125;48.106;11.544;2022-08-19T10:16:32;43.53;;;27.67;;
14096;SDS011;7125;48.106;11.544;2022-08-19T10:19:01;36.22;;;24.95;;
14096;SDS011;7125;48.106;11.544;2022-08-19T10:21:29;50.95;;;31.40;;
14096;SDS011;7125;48.106;11.544;2022-08-19T10:23:58;41.22;;;29.52;;
14096;SDS011;7125;48.106;11.544;2022-08-19T10:26:30;37.97;;;28.23;;
14096;SDS011;7125;48.106;11.544;2022-08-19T10:28:59;38.80;;;25.67;;
14096;SDS011;7125;48.106;11.544;2022-08-19T10:31:27;47.15;;;28.92;;
14096;SDS011;7125;48.106;11.544;2022-08-19T10:33:55;41.03;;;27.70;;
14096;SDS011;7125;48.106;11.544;2022-08-19T10:36:24;32.97;;;25.38;;
14096;SDS011;7125;48.106;11.544;2022-08-19T10:38:54;36.88;;;24.52;;
14096;SDS011;7125;48.106;11.544;2022-08-19T10:41:24;41.83;;;26.25;;
14096;SDS011;7125;48.106;11.544;2022-08-19T10:43:54;37.17;;;25.05;;
14096;SDS011;7125;48.106;11.544;2022-08-19T10:46:23;34.83;;;25.08;;
14096;SDS011;7125;48.106;11.544;2022-08-19T10:48:53;36.10;;;25.95;;
14096;SDS011;7125;48.106;11.544;2022-08-19T10:51:21;43.90;;;27.65;;
14096;SDS011;7125;48.106;11.544;2022-08-19T10:54:05;34.95;;;26.58;;
14096;SDS011;7125;48.106;11.544;2022-08-19T10:56:33;32.28;;;21.08;;
14096;SDS011;7125;48.106;11.544;2022-08-19T10:59:19;28.55;;;20.48;;
14096;SDS011;7125;48.106;11.544;2022-08-19T11:01:48;18.80;;;16.35;;
14096;SDS011;7125;48.106;11.544;2022-08-19T11:04:16;20.40;;;16.58;;
14096;SDS011;7125;48.106;11.544;2022-08-19T11:06:44;16.08;;;14.30;;
14096;SDS011;7125;48.106;11.544;2022-08-19T11:09:12;13.00;;;11.80;;
14096;SDS011;7125;48.106;11.544;2022-08-19T11:11:40;13.82;;;12.32;;
14096;SDS011;7125;48.106;11.544;2022-08-19T11:14:07;12.68;;;11.38;;
14096;SDS011;7125;48.106;11.544;2022-08-19T11:16:38;13.65;;;12.35;;
14096;SDS011;7125;48.106;11.544;2022-08-19T11:19:05;18.75;;;14.85;;
14096;SDS011;7125;48.106;11.544;2022-08-19T11:21:34;13.80;;;12.35;;
14096;SDS011;7125;48.106;11.544;2022-08-19T11:24:04;14.02;;;12.57;;
14096;SDS011;7125;48.106;11.544;2022-08-19T11:26:33;14.68;;;12.98;;
14096;SDS011;7125;48.106;11.544;2022-08-19T11:29:02;19.88;;;15.15;;
14096;SDS011;7125;48.106;11.544;2022-08-19T11:31:32;21.42;;;17.35;;
14096;SDS011;7125;48.106;11.544;2022-08-19T11:34:03;18.08;;;15.88;;
14096;SDS011;7125;48.106;11.544;2022-08-19T11:36:32;23.60;;;17.42;;
14096;SDS011;7125;48.106;11.544;2022-08-19T11:38:59;18.45;;;16.45;;
14096;SDS011;7125;48.106;11.544;2022-08-19T11:41:27;18.10;;;15.95;;
14096;SDS011;7125;48.106;11.544;2022-08-19T11:43:54;19.23;;;16.13;;
14096;SDS011;7125;48.106;11.544;2022-08-19T11:46:22;13.70;;;12.40;;
14096;SDS011;7125;48.106;11.544;2022-08-19T11:48:49;11.90;;;10.77;;
14096;SDS011;7125;48.106;11.544;2022-08-19T11:51:18;11.77;;;10.55;;
14096;SDS011;7125;48.106;11.544;2022-08-19T11:53:49;11.13;;;10.02;;
14096;SDS011;7125;48.106;11.544;2022-08-19T11:56:17;12.68;;;10.20;;
14096;SDS011;7125;48.106;11.544;2022-08-19T11:58:44;10.48;;;9.18;;
14096;SDS011;7125;48.106;11.544;2022-08-19T12:01:12;10.13;;;8.93;;
14096;SDS011;7125;48.106;11.544;2022-08-19T12:03:41;10.63;;;9.10;;
14096;SDS011;7125;48.106;11.544;2022-08-19T12:06:10;9.80;;;8.85;;
14096;SDS011;7125;48.106;11.544;2022-08-19T12:08:41;7.97;;;7.18;;
14096;SDS011;7125;48.106;11.544;2022-08-19T12:11:09;7.13;;;6.40;;
14096;SDS011;7125;48.106;11.544;2022-08-19T12:13:37;6.35;;;5.75;;
14096;SDS011;7125;48.106;11.544;2022-08-19T12:16:07;6.15;;;5.15;;
14096;SDS011;7125;48.106;11.544;2022-08-19T12:18:35;4.55;;;4.15;;
14096;SDS011;7125;48.106;11.544;2022-08-19T12:21:04;3.95;;;3.65;;
14096;SDS011;7125;48.106;11.544;2022-08-19T12:23:31;4.55;;;3.70;;
14096;SDS011;7125;48.106;11.544;2022-08-19T12:25:59;3.30;;;3.00;;
14096;SDS011;7125;48.106;11.544;2022-08-19T12:28:26;3.45;;;3.15;;
14096;SDS011;7125;48.106;11.544;2022-08-19T12:30:53;2.75;;;2.55;;
14096;SDS011;7125;48.106;11.544;2022-08-19T12:33:22;2.67;;;2.47;;
14096;SDS011;7125;48.106;11.544;2022-08-19T12:35:52;2.30;;;2.10;;
14096;SDS011;7125;48.106;11.544;2022-08-19T12:38:19;2.53;;;2.33;;
14096;SDS011;7125;48.106;11.544;2022-08-19T12:40:49;2.83;;;2.60;;
14096;SDS011;7125;48.106;11.544;2022-08-19T12:43:18;4.72;;;2.90;;
14096;SDS011;7125;48.106;11.544;2022-08-19T12:45:45;2.90;;;2.63;;
14096;SDS011;7125;48.106;11.544;2022-08-19T12:48:12;2.60;;;2.38;;
14096;SDS011;7125;48.106;11.544;2022-08-19T12:53:13;2.35;;;2.15;;
14096;SDS011;7125;48.106;11.544;2022-08-19T12:55:41;2.70;;;2.50;;
14096;SDS011;7125;48.106;11.544;2022-08-19T12:58:08;2.08;;;1.98;;
14096;SDS011;7125;48.106;11.544;2022-08-19T13:00:37;2.55;;;2.35;;
14096;SDS011;7125;48.106;11.544;2022-08-19T13:03:04;2.53;;;2.33;;
14096;SDS011;7125;48.106;11.544;2022-08-19T13:05:31;2.88;;;2.67;;
14096;SDS011;7125;48.106;11.544;2022-08-19T13:07:59;2.95;;;2.60;;
14096;SDS011;7125;48.106;11.544;2022-08-19T13:10:29;2.92;;;2.63;;
14096;SDS011;7125;48.106;11.544;2022-08-19T13:13:00;2.50;;;2.35;;
14096;SDS011;7125;48.106;11.544;2022-08-19T13:15:28;2.97;;;2.20;;
14096;SDS011;7125;48.106;11.544;2022-08-19T13:17:57;2.67;;;2.47;;
14096;SDS011;7125;48.106;11.544;2022-08-19T13:20:25;2.60;;;2.40;;
14096;SDS011;7125;48.106;11.544;2022-08-19T13:22:53;2.53;;;2.33;;
14096;SDS011;7125;48.106;11.544;2022-08-19T13:25:22;5.25;;;2.20;;
14096;SDS011;7125;48.106;11.544;2022-08-19T13:27:50;2.00;;;1.80;;
14096;SDS011;7125;48.106;11.544;2022-08-19T13:30:19;1.88;;;1.77;;
14096;SDS011;7125;48.106;11.544;2022-08-19T13:33:05;2.30;;;2.20;;
14096;SDS011;7125;48.106;11.544;2022-08-19T13:35:39;2.35;;;2.17;;
14096;SDS011;7125;48.106;11.544;2022-08-19T13:38:09;2.67;;;2.47;;
14096;SDS011;7125;48.106;11.544;2022-08-19T13:40:37;2.60;;;2.40;;
14096;SDS011;7125;48.106;11.544;2022-08-19T13:43:05;2.80;;;2.60;;
14096;SDS011;7125;48.106;11.544;2022-08-19T13:45:33;3.03;;;2.10;;
14096;SDS011;7125;48.106;11.544;2022-08-19T13:48:00;1.85;;;1.75;;
14096;SDS011;7125;48.106;11.544;2022-08-19T13:50:33;2.05;;;1.95;;
14096;SDS011;7125;48.106;11.544;2022-08-19T13:53:01;3.08;;;2.85;;
14096;SDS011;7125;48.106;11.544;2022-08-19T13:55:29;2.35;;;2.25;;
14096;SDS011;7125;48.106;11.544;2022-08-19T13:57:57;3.03;;;2.83;;
14096;SDS011;7125;48.106;11.544;2022-08-19T14:00:30;2.83;;;2.63;;
14096;SDS011;7125;48.106;11.544;2022-08-19T14:02:58;2.95;;;2.75;;
14096;SDS011;7125;48.106;11.544;2022-08-19T14:05:26;3.90;;;3.60;;
14096;SDS011;7125;48.106;11.544;2022-08-19T14:07:55;3.08;;;2.88;;
14096;SDS011;7125;48.106;11.544;2022-08-19T14:10:23;3.45;;;3.20;;
14096;SDS011;7125;48.106;11.544;2022-08-19T14:12:52;4.05;;;3.65;;
14096;SDS011;7125;48.106;11.544;2022-08-19T14:15:20;3.95;;;3.53;;
14096;SDS011;7125;48.106;11.544;2022-08-19T14:17:48;4.22;;;3.92;;
14096;SDS011;7125;48.106;11.544;2022-08-19T14:20:15;4.68;;;4.38;;
14096;SDS011;7125;48.106;11.544;2022-08-19T14:22:43;5.80;;;4.30;;
14096;SDS011;7125;48.106;11.544;2022-08-19T14:25:13;3.92;;;3.55;;
14096;SDS011;7125;48.106;11.544;2022-08-19T14:27:42;3.70;;;3.40;;
14096;SDS011;7125;48.106;11.544;2022-08-19T14:30:10;4.05;;;3.75;;
14096;SDS011;7125;48.106;11.544;2022-08-19T14:32:39;4.05;;;3.75;;
14096;SDS011;7125;48.106;11.544;2022-08-19T14:35:08;3.17;;;2.95;;
14096;SDS011;7125;48.106;11.544;2022-08-19T14:37:37;2.58;;;2.38;;
14096;SDS011;7125;48.106;11.544;2022-08-19T14:40:05;2.63;;;2.42;;
14096;SDS011;7125;48.106;11.544;2022-08-19T14:42:34;2.53;;;2.33;;
14096;SDS011;7125;48.106;11.544;2022-08-19T14:45:02;2.55;;;2.35;;